sensor_id;sensor_type;location;lat;lon;timestamp;temperature;humidity
52725;DHT22;38621;52.830;6.914;2022-07-10T00:02:14;12.20;99.90
52725;DHT22;38621;52.830;6.914;2022-07-10T00:04:39;12.20;99.90
52725;DHT22;38621;52.830;6.914;2022-07-10T00:07:05;12.10;99.90
52725;DHT22;38621;52.830;6.914;2022-07-10T00:09:31;12.10;99.90
52725;DHT22;38621;52.830;6.914;2022-07-10T00:11:57;12.00;99.90
52725;DHT22;38621;52.830;6.914;2022-07-10T00:14:23;12.00;99.90
52725;DHT22;38621;52.830;6.914;2022-07-10T00:16:49;11.90;99.90
52725;DHT22;38621;52.830;6.914;2022-07-10T00:19:15;11.90;99.90
52725;DHT22;38621;52.830;6.914;2022-07-10T00:21:40;11.80;99.90
52725;DHT22;38621;52.830;6.914;2022-07-10T00:24:06;11.80;99.90
52725;DHT22;38621;52.830;6.914;2022-07-10T00:26:32;11.80;99.90
52725;DHT22;38621;52.830;6.914;2022-07-10T00:28:58;11.70;99.90
52725;DHT22;38621;52.830;6.914;2022-07-10T00:31:23;11.70;99.90
52725;DHT22;38621;52.830;6.914;2022-07-10T00:33:49;11.60;99.90
52725;DHT22;38621;52.830;6.914;2022-07-10T00:36:16;11.60;99.90
52725;DHT22;38621;52.830;6.914;2022-07-10T00:38:42;11.50;99.90
52725;DHT22;38621;52.830;6.914;2022-07-10T00:41:07;11.50;99.90
52725;DHT22;38621;52.830;6.914;2022-07-10T00:43:55;11.60;99.90
52725;DHT22;38621;52.830;6.914;2022-07-10T00:46:22;11.60;99.90
52725;DHT22;38621;52.830;6.914;2022-07-10T00:48:51;11.60;99.90
52725;DHT22;38621;52.830;6.914;2022-07-10T00:51:19;11.50;99.90
52725;DHT22;38621;52.830;6.914;2022-07-10T00:53:46;11.50;99.90
52725;DHT22;38621;52.830;6.914;2022-07-10T00:56:16;11.50;99.90
52725;DHT22;38621;52.830;6.914;2022-07-10T00:58:43;11.50;99.90
52725;DHT22;38621;52.830;6.914;2022-07-10T01:01:09;11.50;99.90
52725;DHT22;38621;52.830;6.914;2022-07-10T01:03:35;11.50;99.90
52725;DHT22;38621;52.830;6.914;2022-07-10T01:06:01;11.50;99.90
52725;DHT22;38621;52.830;6.914;2022-07-10T01:08:27;11.40;99.90
52725;DHT22;38621;52.830;6.914;2022-07-10T01:10:53;11.40;99.90
52725;DHT22;38621;52.830;6.914;2022-07-10T01:13:19;11.40;99.90
52725;DHT22;38621;52.830;6.914;2022-07-10T01:15:45;11.40;99.90
52725;DHT22;38621;52.830;6.914;2022-07-10T01:18:13;11.40;99.90
52725;DHT22;38621;52.830;6.914;2022-07-10T01:20:38;11.40;99.90
52725;DHT22;38621;52.830;6.914;2022-07-10T01:23:04;11.30;99.90
52725;DHT22;38621;52.830;6.914;2022-07-10T01:25:30;11.40;99.90
52725;DHT22;38621;52.830;6.914;2022-07-10T01:27:56;11.30;99.90
52725;DHT22;38621;52.830;6.914;2022-07-10T01:30:21;11.30;99.90
52725;DHT22;38621;52.830;6.914;2022-07-10T01:32:47;11.30;99.90
52725;DHT22;38621;52.830;6.914;2022-07-10T01:35:13;11.30;99.90
52725;DHT22;38621;52.830;6.914;2022-07-10T01:37:39;11.30;99.90
52725;DHT22;38621;52.830;6.914;2022-07-10T01:40:06;11.40;99.90
52725;DHT22;38621;52.830;6.914;2022-07-10T01:42:32;11.40;99.90
52725;DHT22;38621;52.830;6.914;2022-07-10T01:44:58;11.50;99.90
52725;DHT22;38621;52.830;6.914;2022-07-10T01:47:23;11.60;99.90
52725;DHT22;38621;52.830;6.914;2022-07-10T01:49:53;11.70;99.90
52725;DHT22;38621;52.830;6.914;2022-07-10T01:52:20;11.70;99.90
52725;DHT22;38621;52.830;6.914;2022-07-10T01:54:46;11.70;99.90
52725;DHT22;38621;52.830;6.914;2022-07-10T01:57:12;11.70;99.90
52725;DHT22;38621;52.830;6.914;2022-07-10T01:59:39;11.70;99.90
52725;DHT22;38621;52.830;6.914;2022-07-10T02:02:05;11.70;99.90
52725;DHT22;38621;52.830;6.914;2022-07-10T02:04:31;11.60;99.90
52725;DHT22;38621;52.830;6.914;2022-07-10T02:07:09;11.60;99.90
52725;DHT22;38621;52.830;6.914;2022-07-10T02:09:35;11.50;99.90
52725;DHT22;38621;52.830;6.914;2022-07-10T02:12:01;11.60;99.90
52725;DHT22;38621;52.830;6.914;2022-07-10T02:14:27;11.50;99.90
52725;DHT22;38621;52.830;6.914;2022-07-10T02:16:53;11.50;99.90
52725;DHT22;38621;52.830;6.914;2022-07-10T02:19:19;11.50;99.90
52725;DHT22;38621;52.830;6.914;2022-07-10T02:21:44;11.40;99.90
52725;DHT22;38621;52.830;6.914;2022-07-10T02:24:11;11.40;99.90
52725;DHT22;38621;52.830;6.914;2022-07-10T02:26:37;11.30;99.90
52725;DHT22;38621;52.830;6.914;2022-07-10T02:29:03;11.30;99.90
52725;DHT22;38621;52.830;6.914;2022-07-10T02:31:28;11.30;99.90
52725;DHT22;38621;52.830;6.914;2022-07-10T02:33:54;11.30;99.90
52725;DHT22;38621;52.830;6.914;2022-07-10T02:36:20;11.20;99.90
52725;DHT22;38621;52.830;6.914;2022-07-10T02:38:46;11.20;99.90
52725;DHT22;38621;52.830;6.914;2022-07-10T02:41:11;11.20;99.90
52725;DHT22;38621;52.830;6.914;2022-07-10T02:43:37;11.20;99.90
52725;DHT22;38621;52.830;6.914;2022-07-10T02:46:03;11.20;99.90
52725;DHT22;38621;52.830;6.914;2022-07-10T02:48:29;11.20;99.90
52725;DHT22;38621;52.830;6.914;2022-07-10T02:50:54;11.20;99.90
52725;DHT22;38621;52.830;6.914;2022-07-10T02:53:20;11.20;99.90
52725;DHT22;38621;52.830;6.914;2022-07-10T02:55:46;11.20;99.90
52725;DHT22;38621;52.830;6.914;2022-07-10T02:58:11;11.20;99.90
52725;DHT22;38621;52.830;6.914;2022-07-10T03:00:37;11.20;99.90
52725;DHT22;38621;52.830;6.914;2022-07-10T03:03:03;11.20;99.90
52725;DHT22;38621;52.830;6.914;2022-07-10T03:05:29;11.20;99.90
52725;DHT22;38621;52.830;6.914;2022-07-10T03:07:55;11.20;99.90
52725;DHT22;38621;52.830;6.914;2022-07-10T03:10:20;11.20;99.90
52725;DHT22;38621;52.830;6.914;2022-07-10T03:12:46;11.10;99.90
52725;DHT22;38621;52.830;6.914;2022-07-10T03:15:13;11.10;99.90
52725;DHT22;38621;52.830;6.914;2022-07-10T03:17:39;11.10;99.90
52725;DHT22;38621;52.830;6.914;2022-07-10T03:20:06;11.00;99.90
52725;DHT22;38621;52.830;6.914;2022-07-10T03:22:32;11.00;99.90
52725;DHT22;38621;52.830;6.914;2022-07-10T03:24:58;10.90;99.90
52725;DHT22;38621;52.830;6.914;2022-07-10T03:27:24;10.90;99.90
52725;DHT22;38621;52.830;6.914;2022-07-10T03:29:50;10.90;99.90
52725;DHT22;38621;52.830;6.914;2022-07-10T03:32:16;10.90;99.90
52725;DHT22;38621;52.830;6.914;2022-07-10T03:34:41;11.00;99.90
52725;DHT22;38621;52.830;6.914;2022-07-10T03:37:07;10.90;99.90
52725;DHT22;38621;52.830;6.914;2022-07-10T03:39:33;10.90;99.90
52725;DHT22;38621;52.830;6.914;2022-07-10T03:41:59;10.90;99.90
52725;DHT22;38621;52.830;6.914;2022-07-10T03:44:25;10.90;99.90
52725;DHT22;38621;52.830;6.914;2022-07-10T03:46:50;11.00;99.90
52725;DHT22;38621;52.830;6.914;2022-07-10T03:49:16;10.90;99.90
52725;DHT22;38621;52.830;6.914;2022-07-10T03:51:42;10.90;99.90
52725;DHT22;38621;52.830;6.914;2022-07-10T03:54:07;10.90;99.90
52725;DHT22;38621;52.830;6.914;2022-07-10T03:56:33;10.90;99.90
52725;DHT22;38621;52.830;6.914;2022-07-10T03:59:17;11.10;99.90
52725;DHT22;38621;52.830;6.914;2022-07-10T04:01:43;10.80;99.90
52725;DHT22;38621;52.830;6.914;2022-07-10T04:04:09;10.70;99.90
52725;DHT22;38621;52.830;6.914;2022-07-10T04:06:34;10.80;99.90
52725;DHT22;38621;52.830;6.914;2022-07-10T04:09:03;10.90;99.90
52725;DHT22;38621;52.830;6.914;2022-07-10T04:11:29;10.90;99.90
52725;DHT22;38621;52.830;6.914;2022-07-10T04:13:56;11.10;99.90
52725;DHT22;38621;52.830;6.914;2022-07-10T04:16:21;11.20;99.90
52725;DHT22;38621;52.830;6.914;2022-07-10T04:18:48;11.30;99.90
52725;DHT22;38621;52.830;6.914;2022-07-10T04:21:14;11.50;99.90
52725;DHT22;38621;52.830;6.914;2022-07-10T04:23:40;11.60;99.90
52725;DHT22;38621;52.830;6.914;2022-07-10T04:26:05;11.70;99.90
52725;DHT22;38621;52.830;6.914;2022-07-10T04:28:31;11.80;99.90
52725;DHT22;38621;52.830;6.914;2022-07-10T04:30:57;11.90;99.90
52725;DHT22;38621;52.830;6.914;2022-07-10T04:33:22;12.00;99.90
52725;DHT22;38621;52.830;6.914;2022-07-10T04:35:49;12.00;99.90
52725;DHT22;38621;52.830;6.914;2022-07-10T04:38:14;12.00;99.90
52725;DHT22;38621;52.830;6.914;2022-07-10T04:40:40;12.00;99.90
52725;DHT22;38621;52.830;6.914;2022-07-10T04:43:06;12.10;99.90
52725;DHT22;38621;52.830;6.914;2022-07-10T04:45:31;12.10;99.90
52725;DHT22;38621;52.830;6.914;2022-07-10T04:47:57;12.10;99.90
52725;DHT22;38621;52.830;6.914;2022-07-10T04:50:23;12.20;99.90
52725;DHT22;38621;52.830;6.914;2022-07-10T04:52:48;12.20;99.90
52725;DHT22;38621;52.830;6.914;2022-07-10T04:55:14;12.20;99.90
52725;DHT22;38621;52.830;6.914;2022-07-10T04:57:40;12.20;99.90
52725;DHT22;38621;52.830;6.914;2022-07-10T05:00:10;12.30;99.90
52725;DHT22;38621;52.830;6.914;2022-07-10T05:02:36;12.30;99.90
52725;DHT22;38621;52.830;6.914;2022-07-10T05:05:02;12.40;99.90
52725;DHT22;38621;52.830;6.914;2022-07-10T05:07:28;12.40;99.90
52725;DHT22;38621;52.830;6.914;2022-07-10T05:09:54;12.50;99.90
52725;DHT22;38621;52.830;6.914;2022-07-10T05:12:19;12.50;99.90
52725;DHT22;38621;52.830;6.914;2022-07-10T05:14:45;12.50;99.90
52725;DHT22;38621;52.830;6.914;2022-07-10T05:17:11;12.60;99.90
52725;DHT22;38621;52.830;6.914;2022-07-10T05:19:36;12.60;99.90
52725;DHT22;38621;52.830;6.914;2022-07-10T05:22:02;12.70;99.90
52725;DHT22;38621;52.830;6.914;2022-07-10T05:24:28;12.70;99.90
52725;DHT22;38621;52.830;6.914;2022-07-10T05:26:53;12.80;99.90
52725;DHT22;38621;52.830;6.914;2022-07-10T05:29:19;12.80;99.90
52725;DHT22;38621;52.830;6.914;2022-07-10T05:31:45;12.80;99.90
52725;DHT22;38621;52.830;6.914;2022-07-10T05:34:10;12.90;99.90
52725;DHT22;38621;52.830;6.914;2022-07-10T05:36:36;12.90;99.90
52725;DHT22;38621;52.830;6.914;2022-07-10T05:39:02;13.00;99.90
52725;DHT22;38621;52.830;6.914;2022-07-10T05:41:28;13.00;99.90
52725;DHT22;38621;52.830;6.914;2022-07-10T05:43:54;13.00;99.90
52725;DHT22;38621;52.830;6.914;2022-07-10T05:46:20;13.10;99.90
52725;DHT22;38621;52.830;6.914;2022-07-10T05:48:46;13.20;99.90
52725;DHT22;38621;52.830;6.914;2022-07-10T05:51:12;13.20;99.90
52725;DHT22;38621;52.830;6.914;2022-07-10T05:53:37;13.20;99.90
52725;DHT22;38621;52.830;6.914;2022-07-10T05:56:03;13.30;99.90
52725;DHT22;38621;52.830;6.914;2022-07-10T05:58:29;13.40;99.90
52725;DHT22;38621;52.830;6.914;2022-07-10T06:00:55;13.40;99.90
52725;DHT22;38621;52.830;6.914;2022-07-10T06:03:21;13.50;99.90
52725;DHT22;38621;52.830;6.914;2022-07-10T06:05:47;13.60;99.90
52725;DHT22;38621;52.830;6.914;2022-07-10T06:08:13;13.70;99.90
52725;DHT22;38621;52.830;6.914;2022-07-10T06:10:39;13.70;99.90
52725;DHT22;38621;52.830;6.914;2022-07-10T06:13:10;13.80;99.90
52725;DHT22;38621;52.830;6.914;2022-07-10T06:15:36;13.80;99.90
52725;DHT22;38621;52.830;6.914;2022-07-10T06:18:02;13.90;99.90
52725;DHT22;38621;52.830;6.914;2022-07-10T06:20:27;13.80;99.90
52725;DHT22;38621;52.830;6.914;2022-07-10T06:22:53;13.90;99.90
52725;DHT22;38621;52.830;6.914;2022-07-10T06:25:19;13.90;99.90
52725;DHT22;38621;52.830;6.914;2022-07-10T06:27:44;13.90;99.90
52725;DHT22;38621;52.830;6.914;2022-07-10T06:30:10;14.00;99.90
52725;DHT22;38621;52.830;6.914;2022-07-10T06:32:38;14.10;99.90
52725;DHT22;38621;52.830;6.914;2022-07-10T06:35:04;14.20;99.90
52725;DHT22;38621;52.830;6.914;2022-07-10T06:37:30;14.20;99.90
52725;DHT22;38621;52.830;6.914;2022-07-10T06:39:56;14.30;99.90
52725;DHT22;38621;52.830;6.914;2022-07-10T06:42:22;14.40;99.90
52725;DHT22;38621;52.830;6.914;2022-07-10T06:44:48;14.50;99.90
52725;DHT22;38621;52.830;6.914;2022-07-10T06:47:15;14.60;99.90
52725;DHT22;38621;52.830;6.914;2022-07-10T06:50:01;14.70;99.90
52725;DHT22;38621;52.830;6.914;2022-07-10T06:52:27;14.70;99.90
52725;DHT22;38621;52.830;6.914;2022-07-10T06:54:53;14.80;99.90
52725;DHT22;38621;52.830;6.914;2022-07-10T06:57:19;14.80;99.90
52725;DHT22;38621;52.830;6.914;2022-07-10T06:59:45;14.70;99.90
52725;DHT22;38621;52.830;6.914;2022-07-10T07:02:11;14.70;99.90
52725;DHT22;38621;52.830;6.914;2022-07-10T07:04:37;14.70;99.90
52725;DHT22;38621;52.830;6.914;2022-07-10T07:07:03;14.70;99.90
52725;DHT22;38621;52.830;6.914;2022-07-10T07:09:29;14.60;99.90
52725;DHT22;38621;52.830;6.914;2022-07-10T07:11:55;14.60;99.90
52725;DHT22;38621;52.830;6.914;2022-07-10T07:14:20;14.50;99.90
52725;DHT22;38621;52.830;6.914;2022-07-10T07:16:46;14.40;99.90
52725;DHT22;38621;52.830;6.914;2022-07-10T07:19:22;14.30;99.90
52725;DHT22;38621;52.830;6.914;2022-07-10T07:21:59;14.30;99.90
52725;DHT22;38621;52.830;6.914;2022-07-10T07:24:44;14.20;99.90
52725;DHT22;38621;52.830;6.914;2022-07-10T07:27:13;14.30;99.90
52725;DHT22;38621;52.830;6.914;2022-07-10T07:29:39;14.40;99.90
52725;DHT22;38621;52.830;6.914;2022-07-10T07:32:04;14.40;99.90
52725;DHT22;38621;52.830;6.914;2022-07-10T07:34:30;14.40;99.90
52725;DHT22;38621;52.830;6.914;2022-07-10T07:36:59;14.50;99.90
52725;DHT22;38621;52.830;6.914;2022-07-10T07:39:24;14.50;99.90
52725;DHT22;38621;52.830;6.914;2022-07-10T07:41:50;14.60;99.90
52725;DHT22;38621;52.830;6.914;2022-07-10T07:44:16;14.60;99.90
52725;DHT22;38621;52.830;6.914;2022-07-10T07:46:43;14.60;99.90
52725;DHT22;38621;52.830;6.914;2022-07-10T07:49:09;14.70;99.90
52725;DHT22;38621;52.830;6.914;2022-07-10T07:51:38;14.80;99.90
52725;DHT22;38621;52.830;6.914;2022-07-10T07:54:03;14.90;99.90
52725;DHT22;38621;52.830;6.914;2022-07-10T07:56:29;15.00;99.90
52725;DHT22;38621;52.830;6.914;2022-07-10T07:58:55;15.10;99.90
52725;DHT22;38621;52.830;6.914;2022-07-10T08:01:21;15.30;99.90
52725;DHT22;38621;52.830;6.914;2022-07-10T08:03:47;15.40;99.90
52725;DHT22;38621;52.830;6.914;2022-07-10T08:06:13;15.60;99.90
52725;DHT22;38621;52.830;6.914;2022-07-10T08:08:38;15.80;99.90
52725;DHT22;38621;52.830;6.914;2022-07-10T08:11:04;15.90;99.90
52725;DHT22;38621;52.830;6.914;2022-07-10T08:13:30;16.00;99.90
52725;DHT22;38621;52.830;6.914;2022-07-10T08:15:58;16.10;99.90
52725;DHT22;38621;52.830;6.914;2022-07-10T08:18:24;16.20;99.90
52725;DHT22;38621;52.830;6.914;2022-07-10T08:20:49;16.20;99.90
52725;DHT22;38621;52.830;6.914;2022-07-10T08:23:15;16.20;99.90
52725;DHT22;38621;52.830;6.914;2022-07-10T08:25:41;16.00;99.90
52725;DHT22;38621;52.830;6.914;2022-07-10T08:28:06;16.00;99.90
52725;DHT22;38621;52.830;6.914;2022-07-10T08:30:33;15.80;99.90
52725;DHT22;38621;52.830;6.914;2022-07-10T08:32:59;15.70;99.90
52725;DHT22;38621;52.830;6.914;2022-07-10T08:35:24;15.50;99.90
52725;DHT22;38621;52.830;6.914;2022-07-10T08:37:50;15.40;99.90
52725;DHT22;38621;52.830;6.914;2022-07-10T08:40:16;15.30;99.90
52725;DHT22;38621;52.830;6.914;2022-07-10T08:42:43;15.30;99.90
52725;DHT22;38621;52.830;6.914;2022-07-10T08:45:12;15.30;99.90
52725;DHT22;38621;52.830;6.914;2022-07-10T08:47:38;15.30;99.90
52725;DHT22;38621;52.830;6.914;2022-07-10T08:50:27;15.40;99.90
52725;DHT22;38621;52.830;6.914;2022-07-10T08:55:26;15.50;99.90
52725;DHT22;38621;52.830;6.914;2022-07-10T08:57:53;15.60;99.90
52725;DHT22;38621;52.830;6.914;2022-07-10T09:00:22;15.70;99.90
52725;DHT22;38621;52.830;6.914;2022-07-10T09:02:47;15.70;99.90
52725;DHT22;38621;52.830;6.914;2022-07-10T09:05:13;15.70;99.90
52725;DHT22;38621;52.830;6.914;2022-07-10T09:07:40;15.80;99.90
52725;DHT22;38621;52.830;6.914;2022-07-10T09:10:08;15.80;99.90
52725;DHT22;38621;52.830;6.914;2022-07-10T09:12:50;15.90;99.90
52725;DHT22;38621;52.830;6.914;2022-07-10T09:15:17;15.90;99.90
52725;DHT22;38621;52.830;6.914;2022-07-10T09:17:57;16.10;99.90
52725;DHT22;38621;52.830;6.914;2022-07-10T09:20:31;16.10;99.90
52725;DHT22;38621;52.830;6.914;2022-07-10T09:22:59;16.20;99.90
52725;DHT22;38621;52.830;6.914;2022-07-10T09:25:32;16.20;99.90
52725;DHT22;38621;52.830;6.914;2022-07-10T09:27:58;16.30;99.90
52725;DHT22;38621;52.830;6.914;2022-07-10T09:30:35;16.30;99.90
52725;DHT22;38621;52.830;6.914;2022-07-10T09:41:24;16.10;99.90
52725;DHT22;38621;52.830;6.914;2022-07-10T09:44:00;16.00;99.90
52725;DHT22;38621;52.830;6.914;2022-07-10T09:46:35;16.00;99.90
52725;DHT22;38621;52.830;6.914;2022-07-10T09:49:28;16.00;99.90
52725;DHT22;38621;52.830;6.914;2022-07-10T09:51:55;16.10;99.90
52725;DHT22;38621;52.830;6.914;2022-07-10T09:54:22;16.00;99.90
52725;DHT22;38621;52.830;6.914;2022-07-10T09:56:49;16.00;99.90
52725;DHT22;38621;52.830;6.914;2022-07-10T09:59:20;16.00;99.90
52725;DHT22;38621;52.830;6.914;2022-07-10T10:01:50;16.00;99.90
52725;DHT22;38621;52.830;6.914;2022-07-10T10:04:21;16.10;99.90
52725;DHT22;38621;52.830;6.914;2022-07-10T10:06:52;16.10;99.90
52725;DHT22;38621;52.830;6.914;2022-07-10T10:09:29;16.10;99.90
52725;DHT22;38621;52.830;6.914;2022-07-10T10:12:07;16.10;99.90
52725;DHT22;38621;52.830;6.914;2022-07-10T10:14:35;16.30;99.90
52725;DHT22;38621;52.830;6.914;2022-07-10T10:17:04;16.20;99.90
52725;DHT22;38621;52.830;6.914;2022-07-10T10:19:30;16.10;99.90
52725;DHT22;38621;52.830;6.914;2022-07-10T10:22:18;16.10;99.90
52725;DHT22;38621;52.830;6.914;2022-07-10T10:24:45;16.00;99.90
52725;DHT22;38621;52.830;6.914;2022-07-10T10:27:12;16.00;99.90
52725;DHT22;38621;52.830;6.914;2022-07-10T10:29:39;15.90;99.90
52725;DHT22;38621;52.830;6.914;2022-07-10T10:32:07;15.90;99.90
52725;DHT22;38621;52.830;6.914;2022-07-10T10:34:51;15.90;99.90
52725;DHT22;38621;52.830;6.914;2022-07-10T10:37:41;15.80;99.90
52725;DHT22;38621;52.830;6.914;2022-07-10T10:40:11;15.70;99.90
52725;DHT22;38621;52.830;6.914;2022-07-10T10:42:55;15.80;99.90
52725;DHT22;38621;52.830;6.914;2022-07-10T10:47:57;15.90;99.90
52725;DHT22;38621;52.830;6.914;2022-07-10T10:50:41;16.00;99.90
52725;DHT22;38621;52.830;6.914;2022-07-10T10:58:41;16.10;99.90
52725;DHT22;38621;52.830;6.914;2022-07-10T11:12:07;16.10;99.90
52725;DHT22;38621;52.830;6.914;2022-07-10T11:14:37;16.10;99.90
52725;DHT22;38621;52.830;6.914;2022-07-10T11:17:05;16.10;99.90
52725;DHT22;38621;52.830;6.914;2022-07-10T11:19:32;16.20;99.90
52725;DHT22;38621;52.830;6.914;2022-07-10T11:28:08;16.40;99.90
52725;DHT22;38621;52.830;6.914;2022-07-10T11:30:51;16.40;99.90
52725;DHT22;38621;52.830;6.914;2022-07-10T11:33:19;16.30;99.90
52725;DHT22;38621;52.830;6.914;2022-07-10T11:35:52;16.30;99.90
52725;DHT22;38621;52.830;6.914;2022-07-10T11:40:46;16.30;99.90
52725;DHT22;38621;52.830;6.914;2022-07-10T11:43:12;16.30;99.90
52725;DHT22;38621;52.830;6.914;2022-07-10T11:45:43;16.30;99.90
52725;DHT22;38621;52.830;6.914;2022-07-10T11:48:17;16.20;99.90
52725;DHT22;38621;52.830;6.914;2022-07-10T11:50:43;16.00;99.90
52725;DHT22;38621;52.830;6.914;2022-07-10T11:53:10;16.00;99.90
52725;DHT22;38621;52.830;6.914;2022-07-10T11:55:37;16.00;99.90
52725;DHT22;38621;52.830;6.914;2022-07-10T11:58:16;16.10;99.90
52725;DHT22;38621;52.830;6.914;2022-07-10T12:00:42;16.20;99.90
52725;DHT22;38621;52.830;6.914;2022-07-10T12:03:19;16.30;99.90
52725;DHT22;38621;52.830;6.914;2022-07-10T12:05:47;16.40;99.90
52725;DHT22;38621;52.830;6.914;2022-07-10T12:08:14;16.50;99.90
52725;DHT22;38621;52.830;6.914;2022-07-10T12:10:40;16.60;99.90
52725;DHT22;38621;52.830;6.914;2022-07-10T12:13:08;16.60;99.90
52725;DHT22;38621;52.830;6.914;2022-07-10T12:15:40;16.70;99.90
52725;DHT22;38621;52.830;6.914;2022-07-10T12:18:14;16.80;99.90
52725;DHT22;38621;52.830;6.914;2022-07-10T12:20:41;16.90;99.90
52725;DHT22;38621;52.830;6.914;2022-07-10T12:23:11;17.00;99.90
52725;DHT22;38621;52.830;6.914;2022-07-10T12:25:41;17.00;99.90
52725;DHT22;38621;52.830;6.914;2022-07-10T12:28:07;17.00;99.90
52725;DHT22;38621;52.830;6.914;2022-07-10T12:30:38;17.00;99.90
52725;DHT22;38621;52.830;6.914;2022-07-10T12:33:12;16.90;99.90
52725;DHT22;38621;52.830;6.914;2022-07-10T12:35:53;16.80;99.90
52725;DHT22;38621;52.830;6.914;2022-07-10T12:38:30;16.70;99.90
52725;DHT22;38621;52.830;6.914;2022-07-10T12:41:10;16.60;99.90
52725;DHT22;38621;52.830;6.914;2022-07-10T12:43:36;16.50;99.90
52725;DHT22;38621;52.830;6.914;2022-07-10T12:46:16;16.50;99.90
52725;DHT22;38621;52.830;6.914;2022-07-10T12:49:06;16.50;99.90
52725;DHT22;38621;52.830;6.914;2022-07-10T12:51:34;16.50;99.90
52725;DHT22;38621;52.830;6.914;2022-07-10T12:54:00;16.60;99.90
52725;DHT22;38621;52.830;6.914;2022-07-10T12:56:37;16.60;99.90
52725;DHT22;38621;52.830;6.914;2022-07-10T12:59:13;16.60;99.90
52725;DHT22;38621;52.830;6.914;2022-07-10T13:01:45;16.50;99.90
52725;DHT22;38621;52.830;6.914;2022-07-10T13:04:11;16.30;99.90
52725;DHT22;38621;52.830;6.914;2022-07-10T13:06:38;16.10;99.90
52725;DHT22;38621;52.830;6.914;2022-07-10T13:09:25;16.10;99.90
52725;DHT22;38621;52.830;6.914;2022-07-10T13:11:52;16.10;99.90
52725;DHT22;38621;52.830;6.914;2022-07-10T13:14:19;16.10;99.90
52725;DHT22;38621;52.830;6.914;2022-07-10T13:16:45;16.20;99.90
52725;DHT22;38621;52.830;6.914;2022-07-10T13:19:11;16.20;99.90
52725;DHT22;38621;52.830;6.914;2022-07-10T13:21:37;16.30;99.90
52725;DHT22;38621;52.830;6.914;2022-07-10T13:24:04;16.30;99.90
52725;DHT22;38621;52.830;6.914;2022-07-10T13:26:30;16.30;99.90
52725;DHT22;38621;52.830;6.914;2022-07-10T13:28:57;16.40;99.90
52725;DHT22;38621;52.830;6.914;2022-07-10T13:31:23;16.60;99.90
52725;DHT22;38621;52.830;6.914;2022-07-10T13:33:49;16.60;99.90
52725;DHT22;38621;52.830;6.914;2022-07-10T13:36:14;16.70;99.90
52725;DHT22;38621;52.830;6.914;2022-07-10T13:38:40;16.80;99.90
52725;DHT22;38621;52.830;6.914;2022-07-10T13:41:08;16.90;99.90
52725;DHT22;38621;52.830;6.914;2022-07-10T13:43:33;17.00;99.90
52725;DHT22;38621;52.830;6.914;2022-07-10T13:46:01;17.00;99.90
52725;DHT22;38621;52.830;6.914;2022-07-10T13:48:27;17.10;99.90
52725;DHT22;38621;52.830;6.914;2022-07-10T13:50:53;17.10;99.90
52725;DHT22;38621;52.830;6.914;2022-07-10T13:53:19;17.00;99.90
52725;DHT22;38621;52.830;6.914;2022-07-10T13:55:46;17.00;99.90
52725;DHT22;38621;52.830;6.914;2022-07-10T13:58:13;16.90;99.90
52725;DHT22;38621;52.830;6.914;2022-07-10T14:00:39;16.90;99.90
52725;DHT22;38621;52.830;6.914;2022-07-10T14:03:05;16.80;99.90
52725;DHT22;38621;52.830;6.914;2022-07-10T14:05:31;16.80;99.90
52725;DHT22;38621;52.830;6.914;2022-07-10T14:07:58;16.70;99.90
52725;DHT22;38621;52.830;6.914;2022-07-10T14:10:24;16.70;99.90
52725;DHT22;38621;52.830;6.914;2022-07-10T14:12:54;16.60;99.90
52725;DHT22;38621;52.830;6.914;2022-07-10T14:15:20;16.70;99.90
52725;DHT22;38621;52.830;6.914;2022-07-10T14:17:46;16.70;99.90
52725;DHT22;38621;52.830;6.914;2022-07-10T14:20:12;16.80;99.90
52725;DHT22;38621;52.830;6.914;2022-07-10T14:22:38;16.90;99.90
52725;DHT22;38621;52.830;6.914;2022-07-10T14:25:05;16.90;99.90
52725;DHT22;38621;52.830;6.914;2022-07-10T14:27:31;17.00;99.90
52725;DHT22;38621;52.830;6.914;2022-07-10T14:29:58;17.00;99.90
52725;DHT22;38621;52.830;6.914;2022-07-10T14:32:24;17.00;99.90
52725;DHT22;38621;52.830;6.914;2022-07-10T14:34:49;17.10;99.90
52725;DHT22;38621;52.830;6.914;2022-07-10T14:37:15;17.00;99.90
52725;DHT22;38621;52.830;6.914;2022-07-10T14:39:41;17.10;99.90
52725;DHT22;38621;52.830;6.914;2022-07-10T14:42:07;17.00;99.90
52725;DHT22;38621;52.830;6.914;2022-07-10T14:44:34;17.00;99.90
52725;DHT22;38621;52.830;6.914;2022-07-10T14:47:00;17.00;99.90
52725;DHT22;38621;52.830;6.914;2022-07-10T14:49:26;16.90;99.90
52725;DHT22;38621;52.830;6.914;2022-07-10T14:51:51;16.90;99.90
52725;DHT22;38621;52.830;6.914;2022-07-10T14:54:17;17.00;99.90
52725;DHT22;38621;52.830;6.914;2022-07-10T14:56:43;17.00;99.90
52725;DHT22;38621;52.830;6.914;2022-07-10T14:59:10;17.00;99.90
52725;DHT22;38621;52.830;6.914;2022-07-10T15:01:36;17.00;99.90
52725;DHT22;38621;52.830;6.914;2022-07-10T15:04:01;17.00;99.90
52725;DHT22;38621;52.830;6.914;2022-07-10T15:06:27;16.90;99.90
52725;DHT22;38621;52.830;6.914;2022-07-10T15:08:53;16.90;99.90
52725;DHT22;38621;52.830;6.914;2022-07-10T15:11:19;17.00;99.90
52725;DHT22;38621;52.830;6.914;2022-07-10T15:13:50;17.00;99.90
52725;DHT22;38621;52.830;6.914;2022-07-10T15:16:17;17.00;99.90
52725;DHT22;38621;52.830;6.914;2022-07-10T15:18:43;17.20;99.90
52725;DHT22;38621;52.830;6.914;2022-07-10T15:21:09;17.20;99.90
52725;DHT22;38621;52.830;6.914;2022-07-10T15:23:37;17.30;99.90
52725;DHT22;38621;52.830;6.914;2022-07-10T15:26:03;17.30;99.90
52725;DHT22;38621;52.830;6.914;2022-07-10T15:28:30;17.30;99.90
52725;DHT22;38621;52.830;6.914;2022-07-10T15:30:56;17.30;99.90
52725;DHT22;38621;52.830;6.914;2022-07-10T15:33:22;17.30;99.90
52725;DHT22;38621;52.830;6.914;2022-07-10T15:35:48;17.30;99.90
52725;DHT22;38621;52.830;6.914;2022-07-10T15:38:13;17.30;99.90
52725;DHT22;38621;52.830;6.914;2022-07-10T15:40:39;17.30;99.90
52725;DHT22;38621;52.830;6.914;2022-07-10T15:43:05;17.40;99.90
52725;DHT22;38621;52.830;6.914;2022-07-10T15:45:31;17.40;99.90
52725;DHT22;38621;52.830;6.914;2022-07-10T15:47:56;17.40;99.90
52725;DHT22;38621;52.830;6.914;2022-07-10T15:50:22;17.40;99.90
52725;DHT22;38621;52.830;6.914;2022-07-10T15:52:48;17.40;99.90
52725;DHT22;38621;52.830;6.914;2022-07-10T15:55:14;17.40;99.90
52725;DHT22;38621;52.830;6.914;2022-07-10T15:57:40;17.40;99.90
52725;DHT22;38621;52.830;6.914;2022-07-10T16:00:07;17.30;99.90
52725;DHT22;38621;52.830;6.914;2022-07-10T16:02:33;17.30;99.90
52725;DHT22;38621;52.830;6.914;2022-07-10T16:04:59;17.40;99.90
52725;DHT22;38621;52.830;6.914;2022-07-10T16:07:25;17.40;99.90
52725;DHT22;38621;52.830;6.914;2022-07-10T16:09:50;17.40;99.90
52725;DHT22;38621;52.830;6.914;2022-07-10T16:12:16;17.40;99.90